createdAt,value
2019-02-17T00:01:47.066Z,9.20
2019-02-17T00:04:16.288Z,9.20
2019-02-17T00:06:45.493Z,9.30
2019-02-17T00:09:15.248Z,9.30
2019-02-17T00:11:44.428Z,9.30
2019-02-17T00:14:13.642Z,9.30
2019-02-17T00:16:42.879Z,9.30
2019-02-17T00:19:12.090Z,9.30
2019-02-17T00:21:41.255Z,9.30
2019-02-17T00:24:10.492Z,9.30
2019-02-17T00:26:39.695Z,9.30
2019-02-17T00:29:08.896Z,9.30
2019-02-17T00:31:38.089Z,9.20
2019-02-17T00:34:07.300Z,9.20
2019-02-17T00:36:36.491Z,9.10
2019-02-17T00:39:06.607Z,9.10
2019-02-17T00:41:35.808Z,9.10
2019-02-17T00:44:05.009Z,9.10
2019-02-17T00:46:34.198Z,9.10
2019-02-17T00:49:03.435Z,9.10
2019-02-17T00:51:32.627Z,9.10
2019-02-17T00:54:01.840Z,9.10
2019-02-17T00:56:31.155Z,9.10
2019-02-17T00:59:09.660Z,9.10
2019-02-17T01:01:31.219Z,9.10
2019-02-17T01:04:00.519Z,9.00
2019-02-17T01:06:29.723Z,9.00
2019-02-17T01:08:59.234Z,9.00
2019-02-17T01:11:28.423Z,8.90
2019-02-17T01:13:57.559Z,8.90
2019-02-17T01:16:26.751Z,8.90
2019-02-17T01:18:55.961Z,8.80
2019-02-17T01:21:25.171Z,8.80
2019-02-17T01:23:54.357Z,8.70
2019-02-17T01:26:23.664Z,8.70
2019-02-17T01:28:52.859Z,8.70
2019-02-17T01:31:22.134Z,8.60
2019-02-17T01:33:51.376Z,8.60
2019-02-17T01:36:20.590Z,8.50
2019-02-17T01:38:50.115Z,8.50
2019-02-17T01:41:19.304Z,8.40
2019-02-17T01:43:48.479Z,8.30
2019-02-17T01:46:17.683Z,8.20
2019-02-17T01:48:46.915Z,8.20
2019-02-17T01:51:16.140Z,8.10
2019-02-17T01:53:45.342Z,8.00
2019-02-17T01:56:14.468Z,7.90
2019-02-17T01:58:43.676Z,7.90
2019-02-17T02:01:12.864Z,7.80
2019-02-17T02:03:42.108Z,7.80
2019-02-17T02:06:11.295Z,7.70
2019-02-17T02:08:40.497Z,7.60
2019-02-17T02:11:09.708Z,7.60
2019-02-17T02:13:38.902Z,7.50
2019-02-17T02:16:08.119Z,7.50
2019-02-17T02:18:37.411Z,7.40
2019-02-17T02:21:06.608Z,7.40
2019-02-17T02:23:35.820Z,7.30
2019-02-17T02:26:05.032Z,7.20
2019-02-17T02:28:34.268Z,7.10
2019-02-17T02:31:03.449Z,7.00
2019-02-17T02:33:32.635Z,7.00
2019-02-17T02:36:01.801Z,6.90
2019-02-17T02:38:31.070Z,6.90
2019-02-17T02:41:00.265Z,6.80
2019-02-17T02:43:29.462Z,6.80
2019-02-17T02:45:58.644Z,6.80
2019-02-17T02:48:27.884Z,6.70
2019-02-17T02:50:57.078Z,6.70
2019-02-17T02:53:26.292Z,6.70
2019-02-17T02:55:55.512Z,6.70
2019-02-17T02:58:24.785Z,6.80
2019-02-17T03:00:54.043Z,6.80
2019-02-17T03:03:23.328Z,6.80
2019-02-17T03:06:07.388Z,6.90
2019-02-17T03:08:36.593Z,6.90
2019-02-17T03:11:05.784Z,7.00
2019-02-17T03:13:34.993Z,7.10
2019-02-17T03:16:04.289Z,7.10
2019-02-17T03:18:33.508Z,7.20
2019-02-17T03:21:02.719Z,7.20
2019-02-17T03:23:31.915Z,7.30
2019-02-17T03:26:01.108Z,7.30
2019-02-17T03:28:30.625Z,7.30
2019-02-17T03:30:59.938Z,7.30
2019-02-17T03:33:29.167Z,7.40
2019-02-17T03:35:58.419Z,7.40
2019-02-17T03:38:27.654Z,7.40
2019-02-17T03:40:56.852Z,7.30
2019-02-17T03:43:26.084Z,7.30
2019-02-17T03:45:55.290Z,7.30
2019-02-17T03:48:24.509Z,7.30
2019-02-17T03:50:53.732Z,7.20
2019-02-17T03:53:22.947Z,7.20
2019-02-17T03:55:52.155Z,7.10
2019-02-17T03:58:21.359Z,7.10
2019-02-17T04:00:50.563Z,7.10
2019-02-17T04:03:19.773Z,7.10
2019-02-17T04:05:49.020Z,7.10
2019-02-17T04:08:18.208Z,7.10
2019-02-17T04:10:47.412Z,7.10
2019-02-17T04:13:16.651Z,7.10
2019-02-17T04:15:46.028Z,7.00
2019-02-17T04:18:15.225Z,7.00
2019-02-17T04:20:44.468Z,7.00
2019-02-17T04:23:13.673Z,7.00
2019-02-17T04:25:42.881Z,7.00
2019-02-17T04:28:12.085Z,7.00
2019-02-17T04:30:41.275Z,7.00
2019-02-17T04:33:10.488Z,7.00
2019-02-17T04:35:39.712Z,7.00
2019-02-17T04:38:08.928Z,6.90
2019-02-17T04:40:38.115Z,6.90
2019-02-17T04:43:07.332Z,6.90
2019-02-17T04:45:36.553Z,6.80
2019-02-17T04:48:05.764Z,6.80
2019-02-17T04:50:35.002Z,6.70
2019-02-17T04:53:04.218Z,6.70
2019-02-17T04:55:33.451Z,6.60
2019-02-17T04:58:02.661Z,6.60
2019-02-17T05:00:39.771Z,6.50
2019-02-17T05:03:02.757Z,6.40
2019-02-17T05:05:31.958Z,6.40
2019-02-17T05:08:01.157Z,6.30
2019-02-17T05:10:30.470Z,6.30
2019-02-17T05:12:59.764Z,6.30
2019-02-17T05:15:29.031Z,6.20
2019-02-17T05:17:58.291Z,6.20
2019-02-17T05:20:27.484Z,6.10
2019-02-17T05:22:56.680Z,6.10
2019-02-17T05:25:25.928Z,6.00
2019-02-17T05:27:55.125Z,6.00
2019-02-17T05:30:24.335Z,5.90
2019-02-17T05:32:53.561Z,5.90
2019-02-17T05:35:22.774Z,5.80
2019-02-17T05:37:51.968Z,5.80
2019-02-17T05:40:21.198Z,5.70
2019-02-17T05:42:50.416Z,5.70
2019-02-17T05:45:19.609Z,5.70
2019-02-17T05:47:48.949Z,5.60
2019-02-17T05:50:18.262Z,5.60
2019-02-17T05:52:47.537Z,5.60
2019-02-17T05:55:16.783Z,5.60
2019-02-17T05:57:46.080Z,5.60
2019-02-17T06:00:16.881Z,5.60
2019-02-17T06:02:46.156Z,5.60
2019-02-17T06:05:15.473Z,5.60
2019-02-17T06:07:44.801Z,5.60
2019-02-17T06:10:14.105Z,5.60
2019-02-17T06:12:43.355Z,5.50
2019-02-17T06:15:12.756Z,5.50
2019-02-17T06:17:42.068Z,5.50
2019-02-17T06:20:11.748Z,5.50
2019-02-17T06:22:40.961Z,5.50
2019-02-17T06:25:10.182Z,5.50
2019-02-17T06:27:39.396Z,5.50
2019-02-17T06:30:08.836Z,5.50
2019-02-17T06:32:38.160Z,5.50
2019-02-17T06:35:07.540Z,5.40
2019-02-17T06:37:36.822Z,5.40
2019-02-17T06:40:06.580Z,5.40
2019-02-17T06:42:35.801Z,5.40
2019-02-17T06:45:05.159Z,5.40
2019-02-17T06:47:35.887Z,5.40
2019-02-17T06:50:05.704Z,5.40
2019-02-17T06:52:34.901Z,5.40
2019-02-17T06:55:23.187Z,5.40
2019-02-17T06:57:52.559Z,5.40
2019-02-17T07:00:36.757Z,5.40
2019-02-17T07:03:05.980Z,5.40
2019-02-17T07:06:03.150Z,5.40
2019-02-17T07:08:32.329Z,5.50
2019-02-17T07:11:01.546Z,5.50
2019-02-17T07:13:30.869Z,5.50
2019-02-17T07:16:00.257Z,5.50
2019-02-17T07:18:29.461Z,5.60
2019-02-17T07:20:58.785Z,5.60
2019-02-17T07:23:28.032Z,5.60
2019-02-17T07:25:57.225Z,5.70
2019-02-17T07:28:26.449Z,5.70
2019-02-17T07:30:55.852Z,5.80
2019-02-17T07:33:25.033Z,5.80
2019-02-17T07:35:54.281Z,5.90
2019-02-17T07:38:23.604Z,6.00
2019-02-17T07:40:52.884Z,6.10
2019-02-17T07:43:22.152Z,6.20
2019-02-17T07:45:51.543Z,6.30
2019-02-17T07:48:20.769Z,6.40
2019-02-17T07:50:50.229Z,6.50
2019-02-17T07:53:19.447Z,6.70
2019-02-17T07:55:48.665Z,6.80
2019-02-17T07:58:17.905Z,7.10
2019-02-17T08:00:47.117Z,7.40
2019-02-17T08:03:16.459Z,7.60
2019-02-17T08:05:45.885Z,8.00
2019-02-17T08:08:15.097Z,8.20
2019-02-17T08:10:44.317Z,8.40
2019-02-17T08:13:13.504Z,8.40
2019-02-17T08:15:42.714Z,8.60
2019-02-17T08:18:11.927Z,9.00
2019-02-17T08:20:41.148Z,9.50
2019-02-17T08:23:10.337Z,10.00
2019-02-17T08:25:39.552Z,10.60
2019-02-17T08:28:08.836Z,11.10
2019-02-17T08:30:38.080Z,11.50
2019-02-17T08:33:07.295Z,11.80
2019-02-17T08:35:36.515Z,12.10
2019-02-17T08:38:05.712Z,12.60
2019-02-17T08:40:34.933Z,13.00
2019-02-17T08:43:05.204Z,13.30
2019-02-17T08:45:34.420Z,13.60
2019-02-17T08:48:03.618Z,13.90
2019-02-17T08:50:32.848Z,14.30
2019-02-17T08:53:02.131Z,14.70
2019-02-17T08:55:31.401Z,15.00
2019-02-17T08:58:01.586Z,15.30
2019-02-17T09:00:31.732Z,15.60
2019-02-17T09:03:01.108Z,16.00
2019-02-17T09:05:30.320Z,16.30
2019-02-17T09:07:59.657Z,16.30
2019-02-17T09:10:28.922Z,16.40
2019-02-17T09:12:58.149Z,16.50
2019-02-17T09:15:27.496Z,16.70
2019-02-17T09:17:56.786Z,16.80
2019-02-17T09:20:26.176Z,16.90
2019-02-17T09:22:55.448Z,17.00
2019-02-17T09:25:24.714Z,17.10
2019-02-17T09:27:53.950Z,17.20
2019-02-17T09:30:23.364Z,17.30
2019-02-17T09:32:52.599Z,17.30
2019-02-17T09:35:21.807Z,17.40
2019-02-17T09:37:51.032Z,17.50
2019-02-17T09:40:20.247Z,17.70
2019-02-17T09:42:49.429Z,17.80
2019-02-17T09:45:18.734Z,18.00
2019-02-17T09:47:48.049Z,18.10
2019-02-17T09:50:17.376Z,18.30
2019-02-17T09:52:46.613Z,18.40
2019-02-17T09:55:15.829Z,18.40
2019-02-17T09:57:45.064Z,18.40
2019-02-17T10:00:14.522Z,18.40
2019-02-17T10:02:43.721Z,18.50
2019-02-17T10:05:13.202Z,18.50
2019-02-17T10:07:42.620Z,18.50
2019-02-17T10:10:13.439Z,18.50
2019-02-17T10:12:42.641Z,18.70
2019-02-17T10:15:12.585Z,18.90
2019-02-17T10:17:41.784Z,19.00
2019-02-17T10:20:11.321Z,19.00
2019-02-17T10:22:40.543Z,19.00
2019-02-17T10:25:09.861Z,19.00
2019-02-17T10:27:39.064Z,18.90
2019-02-17T10:30:10.310Z,18.90
2019-02-17T10:32:39.512Z,19.10
2019-02-17T10:35:08.769Z,19.20
2019-02-17T10:37:37.988Z,19.30
2019-02-17T10:40:09.034Z,19.50
2019-02-17T10:42:38.279Z,19.90
2019-02-17T10:45:08.456Z,19.90
2019-02-17T10:47:37.657Z,19.80
2019-02-17T10:50:07.464Z,19.70
2019-02-17T10:52:36.862Z,19.60
2019-02-17T10:55:06.112Z,19.50
2019-02-17T10:57:35.320Z,19.40
2019-02-17T11:00:05.264Z,19.30
2019-02-17T11:02:34.507Z,19.30
2019-02-17T11:05:03.720Z,19.00
2019-02-17T11:07:32.937Z,18.40
2019-02-17T11:10:02.153Z,17.70
2019-02-17T11:12:31.366Z,17.50
2019-02-17T11:15:00.619Z,17.90
2019-02-17T11:17:29.825Z,18.60
2019-02-17T11:19:59.040Z,19.20
2019-02-17T11:22:28.301Z,19.60
2019-02-17T11:24:57.864Z,20.00
2019-02-17T11:27:27.181Z,20.40
2019-02-17T11:29:56.481Z,20.60
2019-02-17T11:32:25.704Z,20.90
2019-02-17T11:34:54.908Z,21.10
2019-02-17T11:37:24.246Z,21.10
2019-02-17T11:39:53.449Z,21.20
2019-02-17T11:42:22.756Z,21.30
2019-02-17T11:44:51.964Z,21.40
2019-02-17T11:47:21.236Z,21.40
2019-02-17T11:49:50.500Z,21.60
2019-02-17T11:52:19.712Z,21.70
2019-02-17T11:54:48.964Z,21.70
2019-02-17T11:57:18.147Z,21.80
2019-02-17T11:59:47.352Z,21.80
2019-02-17T12:02:24.681Z,22.00
2019-02-17T12:04:47.572Z,22.10
2019-02-17T12:07:16.777Z,22.30
2019-02-17T12:09:46.069Z,22.30
2019-02-17T12:12:15.307Z,22.10
2019-02-17T12:14:44.535Z,21.60
2019-02-17T12:17:13.749Z,21.00
2019-02-17T12:19:42.980Z,20.40
2019-02-17T12:22:17.927Z,20.30
2019-02-17T12:24:55.965Z,20.40
2019-02-17T12:27:36.725Z,20.70
2019-02-17T12:30:12.497Z,20.80
2019-02-17T12:32:41.721Z,20.60
2019-02-17T12:35:11.013Z,20.40
2019-02-17T12:37:40.228Z,20.10
2019-02-17T12:40:11.740Z,19.80
2019-02-17T12:42:41.042Z,19.40
2019-02-17T12:45:16.244Z,19.10
2019-02-17T12:47:44.047Z,18.90
2019-02-17T12:50:13.476Z,18.60
2019-02-17T12:52:46.997Z,18.40
2019-02-17T12:55:13.576Z,18.20
2019-02-17T12:57:42.828Z,18.00
2019-02-17T13:00:16.019Z,18.00
2019-02-17T13:02:45.317Z,18.00
2019-02-17T13:05:14.679Z,18.00
2019-02-17T13:07:43.975Z,18.00
2019-02-17T13:10:13.505Z,18.00
2019-02-17T13:12:42.730Z,18.10
2019-02-17T13:15:12.268Z,18.30
2019-02-17T13:17:41.479Z,18.30
2019-02-17T13:20:11.628Z,18.20
2019-02-17T13:22:40.883Z,18.00
2019-02-17T13:25:10.947Z,18.10
2019-02-17T13:27:40.230Z,18.30
2019-02-17T13:30:13.057Z,18.70
2019-02-17T13:32:42.279Z,19.00
2019-02-17T13:35:11.504Z,19.10
2019-02-17T13:37:40.775Z,18.90
2019-02-17T13:40:11.047Z,18.70
2019-02-17T13:42:40.257Z,18.50
2019-02-17T13:45:10.997Z,18.30
2019-02-17T13:47:40.227Z,18.10
2019-02-17T13:50:11.338Z,17.90
2019-02-17T13:52:43.538Z,17.70
2019-02-17T13:55:16.511Z,17.60
2019-02-17T13:57:45.678Z,17.50
2019-02-17T14:00:15.598Z,17.30
2019-02-17T14:02:44.784Z,17.10
2019-02-17T14:05:14.123Z,17.00
2019-02-17T14:07:43.310Z,16.80
2019-02-17T14:10:12.679Z,16.70
2019-02-17T14:12:41.882Z,16.60
2019-02-17T14:15:12.784Z,16.60
2019-02-17T14:17:42.201Z,16.70
2019-02-17T14:20:11.577Z,16.80
2019-02-17T14:22:40.811Z,16.90
2019-02-17T14:25:11.089Z,17.10
2019-02-17T14:27:40.624Z,17.20
2019-02-17T14:30:11.355Z,17.40
2019-02-17T14:32:40.641Z,17.40
2019-02-17T14:35:09.980Z,17.40
2019-02-17T14:37:39.232Z,17.40
2019-02-17T14:40:08.468Z,17.40
2019-02-17T14:42:37.691Z,17.40
2019-02-17T14:45:07.616Z,17.40
2019-02-17T14:47:36.843Z,17.40
2019-02-17T14:50:06.229Z,17.40
2019-02-17T14:52:35.464Z,17.30
2019-02-17T14:55:04.811Z,17.20
2019-02-17T14:57:34.165Z,17.20
2019-02-17T15:00:03.385Z,17.10
2019-02-17T15:02:32.601Z,17.00
2019-02-17T15:05:01.824Z,17.00
2019-02-17T15:07:31.048Z,16.90
2019-02-17T15:10:00.322Z,16.90
2019-02-17T15:12:29.436Z,16.80
2019-02-17T15:14:58.686Z,16.70
2019-02-17T15:17:27.905Z,16.60
2019-02-17T15:19:57.127Z,16.50
2019-02-17T15:22:26.536Z,16.40
2019-02-17T15:24:55.766Z,16.30
2019-02-17T15:27:25.040Z,16.30
2019-02-17T15:29:54.305Z,16.20
2019-02-17T15:32:23.496Z,16.00
2019-02-17T15:34:52.809Z,15.90
2019-02-17T15:37:22.705Z,15.70
2019-02-17T15:39:51.915Z,15.70
2019-02-17T15:42:21.157Z,15.60
2019-02-17T15:44:50.334Z,15.60
2019-02-17T15:47:19.533Z,15.50
2019-02-17T15:49:48.797Z,15.50
2019-02-17T15:52:18.072Z,15.40
2019-02-17T15:54:47.287Z,15.30
2019-02-17T15:57:16.504Z,15.30
2019-02-17T15:59:45.740Z,15.20
2019-02-17T16:02:14.945Z,15.20
2019-02-17T16:04:45.132Z,15.10
2019-02-17T16:07:14.365Z,15.10
2019-02-17T16:09:43.586Z,15.00
2019-02-17T16:12:12.835Z,14.80
2019-02-17T16:14:42.034Z,14.70
2019-02-17T16:17:11.381Z,14.50
2019-02-17T16:19:40.572Z,14.40
2019-02-17T16:22:09.784Z,14.20
2019-02-17T16:24:38.996Z,14.10
2019-02-17T16:27:09.204Z,14.10
2019-02-17T16:29:38.985Z,14.00
2019-02-17T16:32:08.648Z,13.90
2019-02-17T16:34:38.802Z,13.80
2019-02-17T16:37:08.645Z,13.70
2019-02-17T16:39:38.510Z,13.60
2019-02-17T16:42:08.357Z,13.50
2019-02-17T16:44:37.942Z,13.50
2019-02-17T16:47:07.727Z,13.40
2019-02-17T16:49:37.240Z,13.40
2019-02-17T16:52:06.816Z,13.30
2019-02-17T16:54:36.388Z,13.30
2019-02-17T16:57:06.293Z,13.20
2019-02-17T16:59:36.156Z,13.10
2019-02-17T17:02:06.044Z,13.10
2019-02-17T17:04:35.814Z,13.00
2019-02-17T17:07:05.667Z,12.90
2019-02-17T17:09:34.948Z,12.80
2019-02-17T17:12:04.373Z,12.80
2019-02-17T17:14:33.607Z,12.70
2019-02-17T17:17:02.953Z,12.70
2019-02-17T17:19:32.276Z,12.60
2019-02-17T17:22:01.629Z,12.60
2019-02-17T17:24:30.944Z,12.50
2019-02-17T17:27:00.301Z,12.40
2019-02-17T17:29:29.575Z,12.40
2019-02-17T17:31:58.791Z,12.30
2019-02-17T17:34:28.085Z,12.20
2019-02-17T17:36:57.389Z,12.20
2019-02-17T17:39:26.675Z,12.10
2019-02-17T17:41:56.166Z,12.10
2019-02-17T17:44:25.436Z,12.10
2019-02-17T17:46:54.752Z,12.10
2019-02-17T17:49:24.132Z,12.00
2019-02-17T17:51:53.345Z,12.00
2019-02-17T17:54:22.684Z,12.00
2019-02-17T17:56:52.339Z,11.90
2019-02-17T17:59:21.559Z,11.90
2019-02-17T18:01:51.168Z,11.80
2019-02-17T18:04:20.485Z,11.80
2019-02-17T18:06:49.732Z,11.70
2019-02-17T18:09:20.163Z,11.70
2019-02-17T18:11:49.377Z,11.60
2019-02-17T18:14:18.593Z,11.60
2019-02-17T18:16:47.869Z,11.60
2019-02-17T18:19:17.082Z,11.60
2019-02-17T18:21:46.316Z,11.50
2019-02-17T18:24:15.496Z,11.50
2019-02-17T18:26:44.738Z,11.40
2019-02-17T18:29:15.211Z,11.40
2019-02-17T18:31:44.529Z,11.30
2019-02-17T18:34:13.805Z,11.30
2019-02-17T18:36:43.113Z,11.20
2019-02-17T18:39:12.398Z,11.20
2019-02-17T18:41:41.720Z,11.20
2019-02-17T18:44:11.244Z,11.20
2019-02-17T18:46:40.468Z,11.20
2019-02-17T18:49:09.800Z,11.10
2019-02-17T18:51:39.096Z,11.10
2019-02-17T18:54:08.317Z,11.00
2019-02-17T18:56:37.564Z,11.00
2019-02-17T18:59:06.789Z,11.00
2019-02-17T19:01:36.037Z,10.90
2019-02-17T19:04:05.420Z,10.90
2019-02-17T19:06:34.697Z,10.90
2019-02-17T19:09:05.022Z,10.90
2019-02-17T19:11:34.275Z,10.90
2019-02-17T19:14:03.664Z,10.80
2019-02-17T19:16:33.015Z,10.80
2019-02-17T19:19:02.348Z,10.80
2019-02-17T19:21:31.730Z,10.70
2019-02-17T19:24:00.964Z,10.70
2019-02-17T19:26:30.373Z,10.60
2019-02-17T19:28:59.734Z,10.60
2019-02-17T19:31:28.977Z,10.60
2019-02-17T19:33:58.241Z,10.50
2019-02-17T19:36:27.440Z,10.50
2019-02-17T19:38:56.688Z,10.50
2019-02-17T19:41:25.983Z,10.40
2019-02-17T19:43:55.294Z,10.30
2019-02-17T19:46:24.585Z,10.30
2019-02-17T19:48:53.960Z,10.20
2019-02-17T19:51:23.231Z,10.20
2019-02-17T19:53:52.607Z,10.10
2019-02-17T19:56:21.773Z,10.10
2019-02-17T19:58:50.993Z,10.00
2019-02-17T20:01:20.201Z,9.90
2019-02-17T20:04:08.461Z,9.70
2019-02-17T20:06:37.739Z,9.50
2019-02-17T20:09:12.436Z,9.30
2019-02-17T20:11:41.674Z,9.10
2019-02-17T20:14:10.932Z,9.00
2019-02-17T20:16:40.149Z,8.90
2019-02-17T20:19:09.387Z,8.80
2019-02-17T20:21:38.671Z,8.70
2019-02-17T20:24:08.224Z,8.60
2019-02-17T20:26:37.598Z,8.50
2019-02-17T20:29:06.823Z,8.40
2019-02-17T20:31:36.108Z,8.30
2019-02-17T20:34:05.551Z,8.20
2019-02-17T20:36:34.797Z,8.20
2019-02-17T20:39:05.278Z,8.10
2019-02-17T20:41:34.496Z,8.10
2019-02-17T20:44:03.842Z,8.00
2019-02-17T20:46:33.220Z,8.00
2019-02-17T20:49:02.540Z,8.00
2019-02-17T20:51:31.846Z,8.00
2019-02-17T20:54:01.140Z,7.90
2019-02-17T20:56:30.384Z,7.90
2019-02-17T20:58:59.667Z,7.90
2019-02-17T21:01:28.917Z,7.80
2019-02-17T21:03:58.108Z,7.70
2019-02-17T21:06:27.341Z,7.60
2019-02-17T21:08:56.550Z,7.50
2019-02-17T21:11:25.805Z,7.40
2019-02-17T21:13:55.034Z,7.40
2019-02-17T21:16:24.266Z,7.40
2019-02-17T21:18:54.018Z,7.40
2019-02-17T21:21:23.230Z,7.40
2019-02-17T21:23:53.830Z,7.40
2019-02-17T21:26:26.331Z,7.30
2019-02-17T21:28:53.885Z,7.20
2019-02-17T21:31:23.133Z,7.20
2019-02-17T21:33:52.332Z,7.10
2019-02-17T21:36:23.488Z,7.10
2019-02-17T21:38:52.440Z,7.10
2019-02-17T21:41:22.140Z,7.00
2019-02-17T21:43:51.723Z,7.00
2019-02-17T21:46:20.968Z,7.00
2019-02-17T21:48:50.205Z,6.90
2019-02-17T21:51:19.448Z,6.90
2019-02-17T21:53:48.692Z,6.90
2019-02-17T21:56:18.017Z,6.80
2019-02-17T21:58:49.454Z,6.70
2019-02-17T22:01:18.177Z,6.70
2019-02-17T22:03:47.423Z,6.70
2019-02-17T22:06:16.638Z,6.70
2019-02-17T22:08:45.820Z,6.70
2019-02-17T22:11:15.043Z,6.70
2019-02-17T22:13:44.300Z,6.70
2019-02-17T22:16:13.548Z,6.60
2019-02-17T22:18:42.864Z,6.60
2019-02-17T22:21:12.176Z,6.60
2019-02-17T22:23:41.413Z,6.60
2019-02-17T22:26:10.660Z,6.60
2019-02-17T22:28:39.925Z,6.50
2019-02-17T22:31:09.245Z,6.50
2019-02-17T22:33:38.448Z,6.50
2019-02-17T22:36:07.671Z,6.50
2019-02-17T22:38:36.905Z,6.40
2019-02-17T22:41:06.185Z,6.40
2019-02-17T22:43:35.393Z,6.30
2019-02-17T22:46:04.625Z,6.30
2019-02-17T22:48:33.847Z,6.20
2019-02-17T22:51:03.061Z,6.20
2019-02-17T22:53:32.307Z,6.20
2019-02-17T22:56:01.520Z,6.20
2019-02-17T22:58:30.756Z,6.20
2019-02-17T23:01:02.028Z,6.20
2019-02-17T23:03:31.968Z,6.30
2019-02-17T23:06:01.179Z,6.30
2019-02-17T23:08:30.489Z,6.30
2019-02-17T23:10:59.820Z,6.40
2019-02-17T23:13:29.063Z,6.40
2019-02-17T23:15:58.262Z,6.40
2019-02-17T23:18:27.581Z,6.50
2019-02-17T23:20:56.804Z,6.50
2019-02-17T23:23:26.077Z,6.50
2019-02-17T23:25:55.373Z,6.60
2019-02-17T23:28:24.575Z,6.70
2019-02-17T23:30:53.809Z,6.70
2019-02-17T23:33:23.132Z,6.70
2019-02-17T23:35:52.340Z,6.80
2019-02-17T23:38:21.556Z,6.80
2019-02-17T23:40:50.775Z,6.80
2019-02-17T23:43:20.066Z,6.80
2019-02-17T23:45:49.281Z,6.80
2019-02-17T23:48:18.593Z,6.80
2019-02-17T23:50:47.905Z,6.90
2019-02-17T23:53:17.452Z,6.90
2019-02-17T23:55:46.651Z,6.80
2019-02-17T23:58:15.840Z,6.90
